createdAt,value
2023-05-11T00:01:59.687Z,100.00
2023-05-11T00:04:27.163Z,100.00
2023-05-11T00:06:56.370Z,100.00
2023-05-11T00:09:23.549Z,100.00
2023-05-11T00:11:54.726Z,100.00
2023-05-11T00:14:27.860Z,100.00
2023-05-11T00:16:58.588Z,100.00
2023-05-11T00:19:26.364Z,100.00
2023-05-11T00:21:53.587Z,100.00
2023-05-11T00:24:20.657Z,100.00
2023-05-11T00:26:47.950Z,100.00
2023-05-11T00:29:15.278Z,100.00
2023-05-11T00:31:42.681Z,100.00
2023-05-11T00:34:10.131Z,100.00
2023-05-11T00:36:41.369Z,100.00
2023-05-11T00:39:09.276Z,100.00
2023-05-11T00:41:36.640Z,100.00
2023-05-11T00:44:04.458Z,100.00
2023-05-11T00:46:31.873Z,100.00
2023-05-11T00:48:58.954Z,100.00
2023-05-11T00:51:27.012Z,100.00
2023-05-11T00:53:54.178Z,100.00
2023-05-11T00:56:21.903Z,100.00
2023-05-11T00:58:49.492Z,100.00
2023-05-11T01:01:21.436Z,100.00
2023-05-11T01:03:49.349Z,100.00
2023-05-11T01:06:42.956Z,100.00
2023-05-11T01:09:20.177Z,100.00
2023-05-11T01:11:58.365Z,100.00
2023-05-11T01:14:39.579Z,100.00
2023-05-11T01:17:13.827Z,100.00
2023-05-11T01:20:06.436Z,100.00
2023-05-11T01:23:15.044Z,100.00
2023-05-11T01:26:11.319Z,100.00
2023-05-11T01:29:05.766Z,100.00
2023-05-11T01:34:33.541Z,100.00
2023-05-11T01:37:25.275Z,100.00
2023-05-11T01:40:04.181Z,100.00
2023-05-11T01:42:35.848Z,100.00
2023-05-11T01:45:04.603Z,100.00
2023-05-11T01:47:32.537Z,100.00
2023-05-11T01:50:03.635Z,100.00
2023-05-11T01:52:32.720Z,100.00
2023-05-11T01:55:02.639Z,100.00
2023-05-11T01:57:31.543Z,100.00
2023-05-11T02:00:00.036Z,100.00
2023-05-11T02:02:27.987Z,100.00
2023-05-11T02:04:55.943Z,100.00
2023-05-11T02:07:25.622Z,100.00
2023-05-11T02:09:55.609Z,100.00
2023-05-11T02:12:24.276Z,100.00
2023-05-11T02:14:53.067Z,100.00
2023-05-11T02:17:23.307Z,100.00
2023-05-11T02:19:51.898Z,100.00
2023-05-11T02:22:24.976Z,100.00
2023-05-11T02:24:52.206Z,100.00
2023-05-11T02:27:19.318Z,100.00
2023-05-11T02:29:47.953Z,100.00
2023-05-11T02:32:18.630Z,100.00
2023-05-11T02:34:54.865Z,100.00
2023-05-11T02:37:25.896Z,100.00
2023-05-11T02:43:19.771Z,100.00
2023-05-11T02:45:48.397Z,100.00
2023-05-11T02:48:27.942Z,100.00
2023-05-11T02:50:57.056Z,100.00
2023-05-11T02:53:27.778Z,100.00
2023-05-11T02:55:58.002Z,100.00
2023-05-11T02:58:25.412Z,100.00
2023-05-11T03:00:52.679Z,100.00
2023-05-11T03:03:27.874Z,100.00
2023-05-11T03:05:54.941Z,100.00
2023-05-11T03:08:21.788Z,100.00
2023-05-11T03:10:53.329Z,100.00
2023-05-11T03:13:25.206Z,100.00
2023-05-11T03:15:53.331Z,100.00
2023-05-11T03:18:21.534Z,100.00
2023-05-11T03:20:50.210Z,100.00
2023-05-11T03:23:18.672Z,100.00
2023-05-11T03:25:47.097Z,100.00
2023-05-11T03:28:14.999Z,100.00
2023-05-11T03:30:45.403Z,100.00
2023-05-11T03:33:12.821Z,100.00
2023-05-11T03:35:43.546Z,100.00
2023-05-11T03:38:13.761Z,100.00
2023-05-11T03:40:42.668Z,100.00
2023-05-11T03:43:12.659Z,100.00
2023-05-11T03:45:42.938Z,100.00
2023-05-11T03:48:11.900Z,100.00
2023-05-11T03:50:39.784Z,100.00
2023-05-11T03:53:07.763Z,100.00
2023-05-11T03:55:36.480Z,100.00
2023-05-11T03:58:07.925Z,100.00
2023-05-11T04:00:40.677Z,100.00
2023-05-11T04:03:09.500Z,100.00
2023-05-11T04:05:36.659Z,100.00
2023-05-11T04:08:07.118Z,100.00
2023-05-11T04:10:33.920Z,100.00
2023-05-11T04:13:04.266Z,100.00
2023-05-11T04:15:31.223Z,100.00
2023-05-11T04:17:58.314Z,100.00
2023-05-11T04:20:25.428Z,100.00
2023-05-11T04:22:55.665Z,100.00
2023-05-11T04:25:26.202Z,100.00
2023-05-11T04:27:57.198Z,100.00
2023-05-11T04:30:32.614Z,100.00
2023-05-11T04:33:02.496Z,100.00
2023-05-11T04:35:29.493Z,100.00
2023-05-11T04:37:56.243Z,100.00
2023-05-11T04:40:23.277Z,100.00
2023-05-11T04:42:49.965Z,100.00
2023-05-11T04:45:17.303Z,100.00
2023-05-11T04:47:45.859Z,100.00
2023-05-11T04:50:21.638Z,100.00
2023-05-11T04:52:48.872Z,100.00
2023-05-11T04:58:06.994Z,100.00
2023-05-11T05:00:33.933Z,100.00
2023-05-11T05:03:00.946Z,100.00
2023-05-11T05:05:27.993Z,100.00
2023-05-11T05:07:54.865Z,100.00
2023-05-11T05:10:22.252Z,100.00
2023-05-11T05:12:49.357Z,100.00
2023-05-11T05:15:16.215Z,100.00
2023-05-11T05:17:43.456Z,100.00
2023-05-11T05:20:10.729Z,100.00
2023-05-11T05:22:37.599Z,100.00
2023-05-11T05:25:04.702Z,100.00
2023-05-11T05:27:34.773Z,100.00
2023-05-11T05:30:01.915Z,100.00
2023-05-11T05:32:29.159Z,100.00
2023-05-11T05:34:56.361Z,100.00
2023-05-11T05:37:23.280Z,100.00
2023-05-11T05:39:50.115Z,100.00
2023-05-11T05:42:19.567Z,100.00
2023-05-11T05:44:46.416Z,100.00
2023-05-11T05:47:13.193Z,100.00
2023-05-11T05:49:40.215Z,100.00
2023-05-11T05:52:07.609Z,100.00
2023-05-11T05:54:34.496Z,100.00
2023-05-11T05:57:01.473Z,100.00
2023-05-11T05:59:28.503Z,100.00
2023-05-11T06:01:55.624Z,100.00
2023-05-11T06:04:22.620Z,100.00
2023-05-11T06:06:49.992Z,100.00
2023-05-11T06:09:16.821Z,100.00
2023-05-11T06:11:43.887Z,100.00
2023-05-11T06:14:19.607Z,100.00
2023-05-11T06:16:46.651Z,100.00
2023-05-11T06:19:13.688Z,100.00
2023-05-11T06:21:43.007Z,100.00
2023-05-11T06:24:09.977Z,100.00
2023-05-11T06:26:37.046Z,100.00
2023-05-11T06:29:03.850Z,100.00
2023-05-11T06:31:34.540Z,100.00
2023-05-11T06:34:01.568Z,100.00
2023-05-11T06:36:28.564Z,100.00
2023-05-11T06:38:55.585Z,100.00
2023-05-11T06:41:22.742Z,100.00
2023-05-11T06:43:49.526Z,100.00
2023-05-11T06:46:18.196Z,100.00
2023-05-11T06:48:44.962Z,100.00
2023-05-11T06:51:12.330Z,100.00
2023-05-11T06:53:39.677Z,100.00
2023-05-11T06:56:07.373Z,100.00
2023-05-11T06:58:34.334Z,100.00
2023-05-11T07:01:02.587Z,100.00
2023-05-11T07:03:29.504Z,100.00
2023-05-11T07:05:56.297Z,100.00
2023-05-11T07:08:23.298Z,100.00
2023-05-11T07:10:50.226Z,100.00
2023-05-11T07:13:17.226Z,100.00
2023-05-11T07:15:44.144Z,100.00
2023-05-11T07:18:11.223Z,100.00
2023-05-11T07:20:40.058Z,100.00
2023-05-11T07:23:07.582Z,100.00
2023-05-11T07:25:34.468Z,100.00
2023-05-11T07:28:01.257Z,100.00
2023-05-11T07:30:28.162Z,100.00
2023-05-11T07:32:55.113Z,100.00
2023-05-11T07:35:24.042Z,100.00
2023-05-11T07:37:51.479Z,100.00
2023-05-11T07:40:20.780Z,100.00
2023-05-11T07:42:47.800Z,100.00
2023-05-11T07:45:14.842Z,100.00
2023-05-11T07:47:41.876Z,100.00
2023-05-11T07:50:09.148Z,99.51
2023-05-11T07:52:36.121Z,99.01
2023-05-11T07:55:02.954Z,99.30
2023-05-11T07:57:29.906Z,98.33
2023-05-11T07:59:57.082Z,97.86
2023-05-11T08:02:24.034Z,99.68
2023-05-11T08:04:51.070Z,97.96
2023-05-11T08:07:17.939Z,94.87
2023-05-11T08:09:44.688Z,95.22
2023-05-11T08:12:11.604Z,96.42
2023-05-11T08:14:38.606Z,96.12
2023-05-11T08:17:14.454Z,95.89
2023-05-11T08:19:41.378Z,97.57
2023-05-11T08:22:08.230Z,97.70
2023-05-11T08:24:35.112Z,97.76
2023-05-11T08:27:02.988Z,97.01
2023-05-11T08:29:29.884Z,96.92
2023-05-11T08:31:56.855Z,94.72
2023-05-11T08:34:24.123Z,93.13
2023-05-11T08:36:51.215Z,91.54
2023-05-11T08:39:32.877Z,92.51
2023-05-11T08:42:07.385Z,93.37
2023-05-11T08:44:36.208Z,92.38
2023-05-11T08:47:21.076Z,92.02
2023-05-11T08:49:49.337Z,88.11
2023-05-11T08:52:18.510Z,88.42
2023-05-11T08:54:46.370Z,88.43
2023-05-11T08:57:14.773Z,86.59
2023-05-11T08:59:44.649Z,84.71
2023-05-11T09:02:16.788Z,84.00
2023-05-11T09:04:47.500Z,80.68
2023-05-11T09:07:17.465Z,80.63
2023-05-11T09:09:46.725Z,77.64
2023-05-11T09:12:13.809Z,77.43
2023-05-11T09:14:42.384Z,75.94
2023-05-11T09:17:09.217Z,74.94
2023-05-11T09:19:36.496Z,72.24
2023-05-11T09:22:06.615Z,72.42
2023-05-11T09:24:33.437Z,73.02
2023-05-11T09:27:09.419Z,73.72
2023-05-11T09:29:36.536Z,73.86
2023-05-11T09:32:03.399Z,73.16
2023-05-11T09:34:30.483Z,73.37
2023-05-11T09:36:57.650Z,73.41
2023-05-11T09:39:41.816Z,75.88
2023-05-11T09:42:22.374Z,73.33
2023-05-11T09:44:49.599Z,71.69
2023-05-11T09:47:21.097Z,72.52
2023-05-11T09:49:50.192Z,68.72
2023-05-11T09:52:18.954Z,68.20
2023-05-11T09:54:47.923Z,66.87
2023-05-11T09:57:29.302Z,67.24
2023-05-11T09:59:57.689Z,65.82
2023-05-11T10:02:26.666Z,62.67
2023-05-11T10:05:04.214Z,60.02
2023-05-11T10:07:32.265Z,61.97
2023-05-11T10:10:01.860Z,62.36
2023-05-11T10:12:30.562Z,61.69
2023-05-11T10:15:07.594Z,64.25
2023-05-11T10:17:35.331Z,63.40
2023-05-11T10:20:04.244Z,60.89
2023-05-11T10:22:32.838Z,63.20
2023-05-11T10:25:00.541Z,61.37
2023-05-11T10:27:28.048Z,62.95
2023-05-11T10:29:55.721Z,64.34
2023-05-11T10:32:22.792Z,62.82
2023-05-11T10:34:52.903Z,63.08
2023-05-11T10:37:21.423Z,66.40
2023-05-11T10:39:50.626Z,64.27
2023-05-11T10:42:56.509Z,63.91
2023-05-11T10:45:30.448Z,63.98
2023-05-11T10:48:30.161Z,65.31
2023-05-11T10:51:47.792Z,65.53
2023-05-11T10:54:49.512Z,63.52
2023-05-11T10:57:36.220Z,64.05
2023-05-11T11:00:18.697Z,63.11
2023-05-11T11:02:46.022Z,61.89
2023-05-11T11:05:17.526Z,60.57
2023-05-11T11:08:03.844Z,60.00
2023-05-11T11:10:30.745Z,60.27
2023-05-11T11:13:07.410Z,60.81
2023-05-11T11:15:56.162Z,61.38
2023-05-11T11:18:25.149Z,59.88
2023-05-11T11:20:53.860Z,60.01
2023-05-11T11:23:43.608Z,59.77
2023-05-11T11:26:19.114Z,59.35
2023-05-11T11:28:56.729Z,57.69
2023-05-11T11:31:31.900Z,57.18
2023-05-11T11:34:19.854Z,56.58
2023-05-11T11:36:55.641Z,55.95
2023-05-11T11:39:25.562Z,56.67
2023-05-11T11:42:05.428Z,55.19
2023-05-11T11:44:34.276Z,55.60
2023-05-11T11:47:11.520Z,54.33
2023-05-11T11:49:40.058Z,53.72
2023-05-11T11:52:11.629Z,54.64
2023-05-11T11:54:44.601Z,54.23
2023-05-11T11:57:30.277Z,54.56
2023-05-11T11:59:57.419Z,49.17
2023-05-11T12:02:26.374Z,49.49
2023-05-11T12:05:25.546Z,48.58
2023-05-11T12:07:53.493Z,47.43
2023-05-11T12:10:22.200Z,49.78
2023-05-11T12:12:50.999Z,51.58
2023-05-11T12:15:25.049Z,51.95
2023-05-11T12:17:52.291Z,50.81
2023-05-11T12:20:20.677Z,51.01
2023-05-11T12:22:53.898Z,51.00
2023-05-11T12:25:21.859Z,49.55
2023-05-11T12:28:03.431Z,48.17
2023-05-11T12:30:33.654Z,47.42
2023-05-11T12:33:04.433Z,47.76
2023-05-11T12:35:33.647Z,48.76
2023-05-11T12:38:05.262Z,48.33
2023-05-11T12:40:32.261Z,47.43
2023-05-11T12:43:00.780Z,46.75
2023-05-11T12:45:29.409Z,47.39
2023-05-11T12:47:57.451Z,46.80
2023-05-11T12:50:25.083Z,48.27
2023-05-11T12:52:52.895Z,49.53
2023-05-11T12:55:30.030Z,47.80
2023-05-11T12:58:15.165Z,47.39
2023-05-11T13:01:00.002Z,46.89
2023-05-11T13:03:32.732Z,45.40
2023-05-11T13:06:09.699Z,46.78
2023-05-11T13:08:48.220Z,47.33
2023-05-11T13:11:26.822Z,47.87
2023-05-11T13:13:55.374Z,48.37
2023-05-11T13:16:34.882Z,46.38
2023-05-11T13:19:06.654Z,44.97
2023-05-11T13:21:33.965Z,45.38
2023-05-11T13:24:04.069Z,45.02
2023-05-11T13:26:32.114Z,44.94
2023-05-11T13:29:10.177Z,46.00
2023-05-11T13:31:52.554Z,45.55
2023-05-11T13:34:20.545Z,46.07
2023-05-11T13:36:47.658Z,45.81
2023-05-11T13:39:14.466Z,46.30
2023-05-11T13:41:41.341Z,46.72
2023-05-11T13:44:08.381Z,47.93
2023-05-11T13:46:37.954Z,48.11
2023-05-11T13:49:05.278Z,48.63
2023-05-11T13:51:32.443Z,48.77
2023-05-11T13:54:04.814Z,49.56
2023-05-11T13:59:12.806Z,51.41
2023-05-11T14:01:39.776Z,51.12
2023-05-11T14:04:06.894Z,51.44
2023-05-11T14:06:35.379Z,57.52
2023-05-11T14:09:02.285Z,58.53
2023-05-11T14:11:29.232Z,60.51
2023-05-11T14:13:56.253Z,61.53
2023-05-11T14:16:23.164Z,61.54
2023-05-11T14:18:51.035Z,64.49
2023-05-11T14:21:18.370Z,64.27
2023-05-11T14:23:57.726Z,64.85
2023-05-11T14:26:29.927Z,66.21
2023-05-11T14:28:56.670Z,65.25
2023-05-11T14:34:07.123Z,66.49
2023-05-11T14:36:35.831Z,67.00
2023-05-11T14:39:03.264Z,64.75
2023-05-11T14:41:30.612Z,65.01
2023-05-11T14:43:58.073Z,65.51
2023-05-11T14:46:26.727Z,66.87
2023-05-11T14:48:55.413Z,66.71
2023-05-11T14:51:22.455Z,67.20
2023-05-11T14:53:49.220Z,67.36
2023-05-11T14:56:17.050Z,67.02
2023-05-11T14:58:43.947Z,67.95
2023-05-11T15:01:10.690Z,68.74
2023-05-11T15:03:37.848Z,69.96
2023-05-11T15:06:04.805Z,68.89
2023-05-11T15:08:32.577Z,68.89
2023-05-11T15:10:59.758Z,71.02
2023-05-11T15:13:27.010Z,70.04
2023-05-11T15:15:53.966Z,71.42
2023-05-11T15:18:21.121Z,73.46
2023-05-11T15:20:47.917Z,75.20
2023-05-11T15:23:17.935Z,73.83
2023-05-11T15:25:45.358Z,73.84
2023-05-11T15:28:12.840Z,74.42
2023-05-11T15:30:41.714Z,73.81
2023-05-11T15:33:11.067Z,74.26
2023-05-11T15:35:38.318Z,73.77
2023-05-11T15:38:05.456Z,74.15
2023-05-11T15:40:32.615Z,75.29
2023-05-11T15:42:59.570Z,75.12
2023-05-11T15:45:31.616Z,76.12
2023-05-11T15:47:58.944Z,76.60
2023-05-11T15:50:27.156Z,76.73
2023-05-11T15:52:56.522Z,77.89
2023-05-11T15:55:29.062Z,78.83
2023-05-11T15:57:56.866Z,77.54
2023-05-11T16:00:23.787Z,77.00
2023-05-11T16:02:51.000Z,77.32
2023-05-11T16:05:17.791Z,79.18
2023-05-11T16:07:44.735Z,80.73
2023-05-11T16:10:11.614Z,82.09
2023-05-11T16:12:38.376Z,81.30
2023-05-11T16:15:05.837Z,80.07
2023-05-11T16:17:32.706Z,79.35
2023-05-11T16:20:00.502Z,79.19
2023-05-11T16:22:27.518Z,80.07
2023-05-11T16:24:54.506Z,78.86
2023-05-11T16:27:21.288Z,77.19
2023-05-11T16:29:52.490Z,78.89
2023-05-11T16:32:20.559Z,77.84
2023-05-11T16:34:49.889Z,78.41
2023-05-11T16:37:19.832Z,77.47
2023-05-11T16:39:46.793Z,79.68
2023-05-11T16:42:13.913Z,80.88
2023-05-11T16:44:40.621Z,78.24
2023-05-11T16:47:09.550Z,77.19
2023-05-11T16:49:48.156Z,78.09
2023-05-11T16:52:36.061Z,79.98
2023-05-11T16:55:03.844Z,79.72
2023-05-11T16:57:31.748Z,79.11
2023-05-11T16:59:58.653Z,79.48
2023-05-11T17:02:25.524Z,79.27
2023-05-11T17:04:52.306Z,82.11
2023-05-11T17:07:19.223Z,82.52
2023-05-11T17:09:45.983Z,82.44
2023-05-11T17:12:12.694Z,81.56
2023-05-11T17:14:40.060Z,82.53
2023-05-11T17:17:08.172Z,82.33
2023-05-11T17:19:35.075Z,84.54
2023-05-11T17:22:02.408Z,83.90
2023-05-11T17:24:29.397Z,84.25
2023-05-11T17:26:56.357Z,83.93
2023-05-11T17:29:23.363Z,85.82
2023-05-11T17:34:37.304Z,85.31
2023-05-11T17:37:04.281Z,84.53
2023-05-11T17:39:40.373Z,83.66
2023-05-11T17:42:19.354Z,84.61
2023-05-11T17:44:46.439Z,84.46
2023-05-11T17:47:13.355Z,84.84
2023-05-11T17:49:40.331Z,84.32
2023-05-11T17:52:07.683Z,87.79
2023-05-11T17:54:34.806Z,88.78
2023-05-11T17:57:01.734Z,90.04
2023-05-11T17:59:31.661Z,88.79
2023-05-11T18:01:59.185Z,90.34
2023-05-11T18:04:26.037Z,90.22
2023-05-11T18:06:52.812Z,91.38
2023-05-11T18:09:24.618Z,92.93
2023-05-11T18:11:54.425Z,90.87
2023-05-11T18:14:21.266Z,87.67
2023-05-11T18:16:49.656Z,85.23
2023-05-11T18:19:23.097Z,86.82
2023-05-11T18:21:54.574Z,86.87
2023-05-11T18:24:27.118Z,87.15
2023-05-11T18:26:53.970Z,87.45
2023-05-11T18:29:22.171Z,88.13
2023-05-11T18:31:49.760Z,88.12
2023-05-11T18:34:16.785Z,87.80
2023-05-11T18:36:45.262Z,87.64
2023-05-11T18:39:14.771Z,87.05
2023-05-11T18:41:42.253Z,86.22
2023-05-11T18:44:11.829Z,86.86
2023-05-11T18:46:45.596Z,85.12
2023-05-11T18:49:16.111Z,84.09
2023-05-11T18:51:43.463Z,82.97
2023-05-11T18:54:12.888Z,83.54
2023-05-11T18:56:39.785Z,84.68
2023-05-11T18:59:06.932Z,84.39
2023-05-11T19:01:47.511Z,86.98
2023-05-11T19:04:20.133Z,86.91
2023-05-11T19:06:47.278Z,88.99
2023-05-11T19:09:14.306Z,87.68
2023-05-11T19:11:41.968Z,86.12
2023-05-11T19:14:10.732Z,87.66
2023-05-11T19:16:38.234Z,92.28
2023-05-11T19:19:23.570Z,83.05
2023-05-11T19:21:51.033Z,83.86
2023-05-11T19:24:18.435Z,85.69
2023-05-11T19:27:03.001Z,86.96
2023-05-11T19:29:33.440Z,87.94
2023-05-11T19:32:00.685Z,88.40
2023-05-11T19:34:35.347Z,87.30
2023-05-11T19:37:11.610Z,85.86
2023-05-11T19:39:39.280Z,86.68
2023-05-11T19:42:07.504Z,88.38
2023-05-11T19:44:37.882Z,87.72
2023-05-11T19:47:04.885Z,86.87
2023-05-11T19:49:31.821Z,86.25
2023-05-11T19:51:59.248Z,87.10
2023-05-11T19:54:26.216Z,87.79
2023-05-11T19:56:55.200Z,87.68
2023-05-11T19:59:22.547Z,86.51
2023-05-11T20:01:49.702Z,87.08
2023-05-11T20:04:19.649Z,89.08
2023-05-11T20:06:46.494Z,87.80
2023-05-11T20:09:13.529Z,88.10
2023-05-11T20:11:40.501Z,86.75
2023-05-11T20:14:07.284Z,87.24
2023-05-11T20:16:34.189Z,86.80
2023-05-11T20:19:01.165Z,86.75
2023-05-11T20:21:28.391Z,86.93
2023-05-11T20:23:55.430Z,88.66
2023-05-11T20:26:22.950Z,89.81
2023-05-11T20:28:49.663Z,89.08
2023-05-11T20:31:16.752Z,88.05
2023-05-11T20:36:19.341Z,87.92
2023-05-11T20:38:46.397Z,84.03
2023-05-11T20:41:13.953Z,86.77
2023-05-11T20:52:04.157Z,93.41
2023-05-11T20:54:33.959Z,96.22
2023-05-11T20:57:01.758Z,100.00
2023-05-11T21:02:01.971Z,100.00
2023-05-11T21:04:31.417Z,100.00
2023-05-11T21:06:58.392Z,100.00
2023-05-11T21:09:25.661Z,100.00
2023-05-11T21:11:52.787Z,100.00
2023-05-11T21:14:20.398Z,100.00
2023-05-11T21:16:48.108Z,100.00
2023-05-11T21:19:16.810Z,100.00
2023-05-11T21:21:43.690Z,100.00
2023-05-11T21:24:10.526Z,100.00
2023-05-11T21:26:37.438Z,100.00
2023-05-11T21:29:07.650Z,100.00
2023-05-11T21:31:34.621Z,100.00
2023-05-11T21:34:07.377Z,100.00
2023-05-11T21:36:39.276Z,100.00
2023-05-11T21:39:09.383Z,100.00
2023-05-11T21:41:39.343Z,100.00
2023-05-11T21:44:06.141Z,100.00
2023-05-11T21:46:33.090Z,100.00
2023-05-11T21:48:59.968Z,100.00
2023-05-11T21:51:26.946Z,100.00
2023-05-11T21:53:53.701Z,100.00
2023-05-11T21:56:20.736Z,100.00
2023-05-11T21:58:49.539Z,100.00
2023-05-11T22:01:17.350Z,100.00
2023-05-11T22:03:44.552Z,100.00
2023-05-11T22:06:11.513Z,100.00
2023-05-11T22:08:38.700Z,100.00
2023-05-11T22:11:05.614Z,100.00
2023-05-11T22:13:32.820Z,100.00
2023-05-11T22:15:59.695Z,100.00
2023-05-11T22:18:26.728Z,100.00
2023-05-11T22:20:53.732Z,100.00
2023-05-11T22:23:21.427Z,100.00
2023-05-11T22:25:48.589Z,100.00
2023-05-11T22:28:15.531Z,100.00
2023-05-11T22:30:45.072Z,100.00
2023-05-11T22:33:12.042Z,100.00
2023-05-11T22:35:40.135Z,100.00
2023-05-11T22:38:07.449Z,100.00
2023-05-11T22:40:34.434Z,100.00
2023-05-11T22:43:01.265Z,100.00
2023-05-11T22:45:28.403Z,100.00
2023-05-11T22:47:55.339Z,100.00
2023-05-11T22:50:22.392Z,100.00
2023-05-11T22:52:49.272Z,100.00
2023-05-11T22:55:16.392Z,100.00
2023-05-11T22:57:44.391Z,100.00
2023-05-11T23:00:12.381Z,100.00
2023-05-11T23:02:47.126Z,100.00
2023-05-11T23:05:14.360Z,100.00
2023-05-11T23:07:41.334Z,100.00
2023-05-11T23:10:09.078Z,100.00
2023-05-11T23:12:36.333Z,100.00
2023-05-11T23:15:03.373Z,100.00
2023-05-11T23:17:30.624Z,100.00
2023-05-11T23:19:57.761Z,100.00
2023-05-11T23:22:24.861Z,100.00
2023-05-11T23:24:52.158Z,100.00
2023-05-11T23:27:19.447Z,100.00
2023-05-11T23:29:46.537Z,100.00
2023-05-11T23:32:13.296Z,100.00
2023-05-11T23:34:40.364Z,100.00
2023-05-11T23:37:07.673Z,100.00
2023-05-11T23:39:34.874Z,100.00
2023-05-11T23:42:01.930Z,100.00
2023-05-11T23:44:29.085Z,100.00
2023-05-11T23:46:58.916Z,100.00
2023-05-11T23:49:26.232Z,100.00
2023-05-11T23:51:54.381Z,100.00
2023-05-11T23:54:30.299Z,100.00
2023-05-11T23:56:57.372Z,100.00
2023-05-11T23:59:24.612Z,100.00
